• Join FlightAware (Why Join?)
  • Login
  • US Flag 
03:06AM EDT


 

Airport Tracker/Info


-or-


 

Live Flight TrackerFlight Track Log ✈ AWI3778 ✈ 12-Aug-2013 ✈ KBTV - KPHL

Flight Track Log - Related Links

Times and Time Zones

All times are in EDT time to prevent confusion due to time zone crossing. See the AWI3778 flight status page for this flight to view local times or setup timezone preferences in your user account.

Time Position Orientation Groundspeed Altitude Reporting Facility
EDT Latitude Longitude Course Direction KTS MPH feet Rate Location/Type
01:35PM 44.3803 -73.1169 174° South 196 226 3,800  Level Boston Center
01:36PM 44.1733 -73.2574 196° South  Level FlightAware Approximate
01:36PM 44.3133 -73.1450 197° South 232 267 6,300  Level Boston Center
01:37PM 44.0758 -73.2964 196° South  Level FlightAware Approximate
01:37PM 44.2403 -73.1789 198° South 267 307 8,900  Level Boston Center
01:38PM 43.9783 -73.3354 196° South  Level FlightAware Approximate
01:38PM 44.1608 -73.2128 197° South 289 333 10,900  Level Boston Center
01:39PM 43.8807 -73.3738 195° South  Level FlightAware Approximate
01:39PM 44.0750 -73.2492 197° South 317 365 12,700  Level Boston Center
01:40PM 43.7827 -73.4100 195° South  Level FlightAware Approximate
01:40PM 43.9894 -73.2856 197° South 346 398 14,300  Level Boston Center
01:41PM 43.8953 -73.3244 197° South 351 404 15,800 1,380 Climbing Boston Center
01:42PM 43.8014 -73.3664 198° South 357 411 17,200 1,200 Climbing Boston Center
01:43PM 43.7008 -73.4078 197° South 370 426 18,200 1,080 Climbing Boston Center
01:44PM 43.6025 -73.4492 197° South 375 432 19,400 1,020 Climbing Boston Center
01:46PM 43.5042 -73.4906 197° South 380 437 20,500 960 Climbing Boston Center
01:47PM 43.3828 -73.5456 198° South 386 444 21,600 780 Climbing Boston Center
01:48PM 43.2803 -73.5867 196° South 386 444 22,200 660 Climbing Boston Center
01:49PM 43.1778 -73.6303 197° South 386 444 23,000 780 Climbing Boston Center
01:50PM 43.0586 -73.6761 196° South 392 451 23,800 480 Climbing Boston Center
01:51PM 42.9539 -73.7194 197° South 402 463 24,000 60 Climbing Boston Center
01:52PM 42.8450 -73.7653 197° South 407 468 24,000  Level Boston Center
01:53PM 42.7378 -73.8308 204° Southwest 412 474 24,000  Level Boston Center
01:54PM 42.6781 -73.9397 233° Southwest 396 456 24,000  Level Boston Center
01:55PM 42.6181 -74.0653 237° Southwest 392 451 24,000  Level Boston Center
01:56PM 42.5597 -74.1961 239° Southwest 409 471 24,000  Level Boston Center
01:57PM 42.4972 -74.3239 236° Southwest 415 478 24,000  Level Boston Center
01:58PM 42.4306 -74.4542 235° Southwest 415 478 24,000  Level Boston Center
01:59PM 42.3678 -74.5786 236° Southwest 415 478 24,000 -600 Level Boston Center
02:00PM 42.3047 -74.7083 237° Southwest 410 472 22,800 -1,200 Descending Boston Center
02:01PM 42.2394 -74.8378 236° Southwest 420 483 21,600 -900 Descending Boston Center
02:02PM 42.1681 -74.9611 232° Southwest 420 483 21,000 -780 Descending Boston Center
02:04PM 41.9253 -75.1697 213° Southwest 427 491 19,000 -720 Descending New York Center
02:05PM 41.8308 -75.2442 210° Southwest 416 479 18,600 -660 Descending New York Center
02:06PM 41.7297 -75.3264 211° Southwest 416 479 17,700 -960 Descending New York Center
02:07PM 41.6417 -75.3953 210° Southwest 421 484 16,700 -1,680 Descending New York Center
02:08PM 41.5514 -75.4694 212° Southwest 405 466 14,400 -1,920 Descending New York Center
02:09PM 41.4589 -75.5433 211° Southwest 372 428 13,000 -780 Descending New York Center
02:10PM 41.3750 -75.6092 210° Southwest 361 415 12,900 -540 Descending New York Center
02:11PM 41.2847 -75.6772 210° Southwest 366 421 12,000 -480 Descending New York Center
02:12PM 41.1864 -75.6894 185° South 352 405 12,000  Level New York Center
02:13PM 41.0925 -75.6881 179° South 372 428 12,000  Level New York Center
02:14PM 40.9800 -75.6881 180° South 372 428 12,000  Level New York Center
02:15PM 40.8781 -75.6864 179° South 372 428 12,000  Level New York Center
02:16PM 40.7844 -75.6850 179° South 372 428 12,000 -360 Level New York Center
02:17PM 40.6881 -75.6453 163° South 365 420 11,300 -840 Descending New York Center
02:18PM 40.5850 -75.5697 151° Southeast 377 434 10,400 -660 Descending New York Center
02:19PM 40.4950 -75.4761 142° Southeast 377 434 10,000 -420 Descending New York Center
02:20PM 40.4239 -75.4275 153° Southeast 347 399 9,600 -780 Descending New York Center
02:21PM 40.3439 -75.3950 163° South 307 353 8,500 -1,140 Descending New York Center
02:22PM 40.2597 -75.3594 162° South 290 334 7,300 -1,140 Descending New York Center
02:23PM 40.1878 -75.3356 166° South 297 342 6,300 -1,140 Descending New York Center
02:24PM 40.1142 -75.2956 157° South 276 318 5,100 -1,080 Descending New York Center
02:25PM 40.0639 -75.2489 145° Southeast 236 272 4,200 -600 Descending New York Center
02:26PM 40.0131 -75.2183 155° Southeast 221 254 4,000 -120 Descending New York Center
02:27PM 39.9333 -75.1667 154° Southeast 218 251 4,000  Level Philadelphia TRACON
02:28PM 39.8833 -75.1500 166° South 211 243 4,000 -480 Level Philadelphia TRACON
02:29PM 39.8167 -75.1167 159° South 212 244 3,100 -600 Descending Philadelphia TRACON
02:30PM 39.7667 -75.1000 166° South 208 239 2,900 -780 Descending Philadelphia TRACON
02:31PM 39.7500 -75.1833 255° West 194 223 1,600 -660 Descending Philadelphia TRACON
02:32PM 39.8000 -75.2000 346° North 174 200 1,600 -180 Level Philadelphia TRACON
02:33PM 39.8333 -75.2167 339° North 154 177 1,300 660 Descending Philadelphia TRACON
02:34PM 39.9000 -75.2333 349° North 206 237 3,000 840 Climbing Philadelphia TRACON
02:35PM 39.9500 -75.2667 333° Northwest 197 227 3,000  Level Philadelphia TRACON
02:36PM 39.9833 -75.2333 37° Northeast 198 228 3,000  Level Philadelphia TRACON
02:37PM 40.0000 -75.1500 75° East 203 234 3,000  Level Philadelphia TRACON
02:38PM 40.0000 -75.0833 90° East 207 238 3,000 -300 Level Philadelphia TRACON
02:39PM 39.9667 -75.0333 131° Southeast 193 222 2,500 -480 Descending Philadelphia TRACON
02:41PM 39.9167 -75.0500 194° South 178 205 2,000 -360 Descending Philadelphia TRACON
02:42PM 39.9000 -75.1000 247° West 172 198 1,800 -480 Descending Philadelphia TRACON
02:42PM 39.9000 -75.1500 270° West 153 176 1,200 -780 Descending Philadelphia TRACON
02:43PM 39.8833 -75.2000 247° West 154 177 400 -900 Descending Philadelphia TRACON